createdAt,value
2022-12-05T00:00:30.793Z,3.47
2022-12-05T00:01:30.789Z,3.45
2022-12-05T00:02:30.818Z,3.44
2022-12-05T00:03:30.769Z,3.47
2022-12-05T00:04:30.837Z,3.44
2022-12-05T00:05:30.739Z,3.44
2022-12-05T00:06:30.752Z,3.44
2022-12-05T00:07:30.776Z,3.44
2022-12-05T00:08:30.716Z,3.42
2022-12-05T00:09:30.700Z,3.40
2022-12-05T00:10:30.684Z,3.47
2022-12-05T00:11:30.695Z,3.41
2022-12-05T00:12:30.666Z,3.37
2022-12-05T00:13:30.669Z,3.41
2022-12-05T00:14:30.639Z,3.42
2022-12-05T00:15:30.630Z,3.50
2022-12-05T00:16:30.797Z,3.34
2022-12-05T00:17:30.601Z,3.44
2022-12-05T00:18:30.595Z,3.42
2022-12-05T00:19:30.615Z,3.32
2022-12-05T00:20:30.575Z,3.37
2022-12-05T00:21:30.563Z,3.42
2022-12-05T00:22:30.574Z,3.51
2022-12-05T00:23:30.587Z,3.55
2022-12-05T00:24:30.535Z,3.50
2022-12-05T00:25:30.524Z,3.50
2022-12-05T00:26:30.518Z,3.44
2022-12-05T00:27:30.497Z,3.51
2022-12-05T00:28:30.486Z,3.47
2022-12-05T00:29:30.486Z,3.45
2022-12-05T00:30:30.459Z,3.47
2022-12-05T00:31:30.533Z,3.45
2022-12-05T00:32:30.443Z,3.42
2022-12-05T00:33:30.454Z,3.36
2022-12-05T00:34:30.417Z,3.50
2022-12-05T00:35:30.401Z,3.53
2022-12-05T00:36:30.402Z,3.53
2022-12-05T00:37:30.382Z,3.50
2022-12-05T00:38:30.411Z,3.53
2022-12-05T00:39:30.372Z,3.53
2022-12-05T00:40:30.348Z,3.47
2022-12-05T00:41:30.338Z,3.51
2022-12-05T00:42:30.343Z,3.53
2022-12-05T00:43:30.317Z,3.59
2022-12-05T00:44:30.332Z,3.56
2022-12-05T00:45:30.295Z,3.56
2022-12-05T00:46:30.404Z,3.58
2022-12-05T00:47:30.276Z,3.55
2022-12-05T00:48:30.259Z,3.55
2022-12-05T00:49:30.260Z,3.62
2022-12-05T00:50:30.272Z,3.60
2022-12-05T00:51:30.231Z,3.60
2022-12-05T00:52:30.218Z,3.63
2022-12-05T00:53:30.220Z,3.60
2022-12-05T00:54:30.235Z,3.59
2022-12-05T00:55:30.192Z,3.51
2022-12-05T00:56:30.177Z,3.62
2022-12-05T00:57:30.158Z,3.58
2022-12-05T00:58:30.152Z,3.60
2022-12-05T00:59:30.142Z,3.63
2022-12-05T01:00:30.136Z,3.55
2022-12-05T01:01:30.216Z,3.59
2022-12-05T01:02:30.107Z,3.59
2022-12-05T01:03:30.166Z,3.66
2022-12-05T01:04:30.092Z,3.59
2022-12-05T01:05:30.078Z,3.53
2022-12-05T01:06:30.069Z,3.50
2022-12-05T01:07:30.144Z,3.63
2022-12-05T01:08:30.044Z,3.59
2022-12-05T01:09:30.040Z,3.58
2022-12-05T01:10:30.048Z,3.59
2022-12-05T01:11:30.037Z,3.62
2022-12-05T01:12:29.998Z,3.63
2022-12-05T01:13:29.986Z,3.62
2022-12-05T01:14:29.971Z,3.62
2022-12-05T01:15:29.970Z,3.69
2022-12-05T01:16:30.036Z,3.68
2022-12-05T01:17:29.949Z,3.70
2022-12-05T01:18:29.937Z,3.73
2022-12-05T01:19:29.913Z,3.78
2022-12-05T01:20:29.905Z,3.76
2022-12-05T01:21:29.897Z,3.73
2022-12-05T01:22:29.887Z,3.73
2022-12-05T01:23:29.882Z,3.73
2022-12-05T01:24:29.862Z,3.74
2022-12-05T01:25:29.851Z,3.70
2022-12-05T01:26:29.863Z,3.68
2022-12-05T01:27:29.852Z,3.74
2022-12-05T01:28:29.848Z,3.74
2022-12-05T01:29:29.812Z,3.74
2022-12-05T01:30:29.816Z,3.74
2022-12-05T01:31:29.864Z,3.70
2022-12-05T01:32:29.774Z,3.78
2022-12-05T01:33:29.773Z,3.73
2022-12-05T01:34:29.757Z,3.68
2022-12-05T01:35:29.743Z,3.73
2022-12-05T01:36:29.729Z,3.74
2022-12-05T01:37:29.740Z,3.77
2022-12-05T01:38:29.733Z,3.73
2022-12-05T01:39:29.693Z,3.77
2022-12-05T01:40:29.692Z,3.68
2022-12-05T01:41:29.680Z,3.69
2022-12-05T01:42:29.684Z,3.73
2022-12-05T01:43:29.655Z,3.73
2022-12-05T01:44:29.657Z,3.81
2022-12-05T01:45:29.683Z,3.81
2022-12-05T01:46:29.725Z,3.73
2022-12-05T01:47:29.609Z,3.81
2022-12-05T01:48:29.602Z,3.78
2022-12-05T01:49:29.589Z,3.77
2022-12-05T01:50:29.592Z,3.81
2022-12-05T01:51:29.565Z,3.77
2022-12-05T01:52:29.551Z,3.78
2022-12-05T01:53:29.560Z,3.80
2022-12-05T01:54:29.528Z,3.76
2022-12-05T01:55:29.516Z,3.77
2022-12-05T01:56:29.520Z,3.87
2022-12-05T01:57:29.497Z,3.83
2022-12-05T01:58:29.519Z,3.83
2022-12-05T01:59:29.475Z,3.78
2022-12-05T02:00:29.482Z,3.83
2022-12-05T02:01:29.483Z,3.81
2022-12-05T02:02:29.496Z,3.83
2022-12-05T02:03:29.447Z,3.83
2022-12-05T02:04:29.423Z,3.77
2022-12-05T02:05:29.423Z,3.83
2022-12-05T02:06:29.399Z,3.94
2022-12-05T02:07:29.420Z,3.86
2022-12-05T02:08:29.376Z,3.87
2022-12-05T02:09:29.368Z,3.88
2022-12-05T02:10:29.364Z,3.91
2022-12-05T02:11:29.332Z,3.96
2022-12-05T02:12:29.347Z,3.87
2022-12-05T02:13:29.321Z,3.95
2022-12-05T02:14:29.346Z,3.87
2022-12-05T02:15:29.292Z,3.87
2022-12-05T02:16:29.333Z,3.87
2022-12-05T02:17:29.277Z,3.92
2022-12-05T02:18:29.269Z,3.91
2022-12-05T02:19:29.296Z,3.88
2022-12-05T02:20:29.237Z,3.86
2022-12-05T02:21:29.233Z,3.94
2022-12-05T02:22:36.325Z,3.86
2022-12-05T02:23:29.199Z,3.87
2022-12-05T02:24:29.195Z,3.84
2022-12-05T02:25:29.203Z,3.86
2022-12-05T02:26:29.174Z,3.91
2022-12-05T02:27:29.172Z,3.91
2022-12-05T02:28:29.175Z,3.84
2022-12-05T02:29:29.143Z,3.84
2022-12-05T02:30:29.151Z,3.86
2022-12-05T02:31:29.243Z,3.91
2022-12-05T02:32:29.116Z,3.87
2022-12-05T02:33:29.091Z,3.88
2022-12-05T02:34:29.093Z,3.96
2022-12-05T02:35:29.072Z,3.92
2022-12-05T02:36:29.058Z,3.92
2022-12-05T02:37:29.053Z,3.95
2022-12-05T02:38:29.085Z,3.92
2022-12-05T02:39:29.029Z,3.87
2022-12-05T02:40:29.021Z,3.87
2022-12-05T02:41:29.006Z,3.87
2022-12-05T02:42:29.013Z,3.84
2022-12-05T02:43:28.982Z,3.87
2022-12-05T02:44:28.987Z,3.84
2022-12-05T02:45:29.017Z,3.91
2022-12-05T02:46:29.079Z,3.91
2022-12-05T02:47:28.960Z,3.95
2022-12-05T02:48:28.932Z,3.86
2022-12-05T02:49:28.930Z,3.95
2022-12-05T02:50:28.924Z,3.88
2022-12-05T02:51:28.901Z,3.95
2022-12-05T02:52:28.885Z,3.86
2022-12-05T02:53:28.879Z,3.91
2022-12-05T02:54:28.886Z,3.92
2022-12-05T02:55:28.847Z,3.92
2022-12-05T02:56:28.842Z,3.92
2022-12-05T02:57:28.855Z,3.92
2022-12-05T02:58:28.823Z,3.87
2022-12-05T02:59:28.821Z,3.98
2022-12-05T03:00:28.804Z,3.91
2022-12-05T03:01:28.871Z,3.98
2022-12-05T03:02:28.800Z,3.98
2022-12-05T03:03:28.773Z,3.96
2022-12-05T03:04:28.847Z,3.98
2022-12-05T03:05:28.740Z,3.99
2022-12-05T03:06:28.755Z,3.88
2022-12-05T03:07:28.758Z,3.98
2022-12-05T03:08:28.708Z,3.96
2022-12-05T03:09:28.698Z,3.98
2022-12-05T03:10:28.697Z,4.01
2022-12-05T03:11:28.676Z,4.04
2022-12-05T03:12:28.667Z,4.02
2022-12-05T03:13:28.660Z,3.95
2022-12-05T03:14:28.637Z,3.91
2022-12-05T03:15:28.634Z,3.94
2022-12-05T03:16:28.642Z,3.98
2022-12-05T03:17:28.606Z,3.95
2022-12-05T03:18:28.632Z,3.86
2022-12-05T03:19:28.603Z,3.95
2022-12-05T03:20:28.583Z,3.95
2022-12-05T03:21:28.559Z,3.95
2022-12-05T03:22:28.560Z,3.92
2022-12-05T03:23:28.548Z,3.96
2022-12-05T03:24:28.565Z,3.99
2022-12-05T03:25:28.515Z,4.01
2022-12-05T03:26:28.508Z,3.99
2022-12-05T03:27:28.517Z,3.99
2022-12-05T03:28:28.494Z,3.95
2022-12-05T03:29:28.484Z,4.05
2022-12-05T03:30:28.510Z,3.96
2022-12-05T03:31:28.461Z,3.99
2022-12-05T03:32:28.450Z,4.05
2022-12-05T03:33:28.447Z,3.98
2022-12-05T03:34:28.438Z,4.01
2022-12-05T03:35:28.421Z,4.06
2022-12-05T03:36:28.396Z,4.05
2022-12-05T03:37:28.400Z,4.02
2022-12-05T03:38:28.367Z,3.98
2022-12-05T03:39:28.361Z,4.04
2022-12-05T03:40:28.356Z,4.06
2022-12-05T03:41:28.360Z,3.99
2022-12-05T03:42:28.326Z,4.01
2022-12-05T03:43:28.341Z,4.06
2022-12-05T03:44:28.302Z,4.02
2022-12-05T03:45:28.304Z,4.01
2022-12-05T03:46:28.298Z,4.12
2022-12-05T03:47:28.284Z,4.02
2022-12-05T03:48:28.262Z,4.01
2022-12-05T03:49:33.654Z,4.08
2022-12-05T03:50:29.264Z,4.05
2022-12-05T03:51:28.285Z,4.05
2022-12-05T03:52:28.228Z,3.95
2022-12-05T03:53:28.214Z,3.96
2022-12-05T03:54:28.189Z,4.19
2022-12-05T03:55:28.199Z,4.01
2022-12-05T03:56:28.223Z,4.01
2022-12-05T03:57:28.185Z,4.02
2022-12-05T03:58:28.167Z,3.98
2022-12-05T03:59:28.139Z,4.08
2022-12-05T04:00:28.125Z,4.05
2022-12-05T04:01:28.191Z,4.01
2022-12-05T04:02:28.104Z,4.02
2022-12-05T04:03:28.196Z,4.04
2022-12-05T04:04:28.090Z,4.10
2022-12-05T04:05:28.069Z,4.12
2022-12-05T04:06:28.175Z,4.06
2022-12-05T04:07:28.058Z,3.94
2022-12-05T04:08:28.057Z,4.04
2022-12-05T04:09:28.041Z,4.01
2022-12-05T04:10:28.020Z,4.02
2022-12-05T04:11:28.007Z,4.06
2022-12-05T04:12:28.005Z,3.95
2022-12-05T04:13:27.995Z,3.98
2022-12-05T04:14:27.974Z,4.04
2022-12-05T04:15:28.015Z,4.06
2022-12-05T04:16:27.979Z,3.94
2022-12-05T04:17:27.941Z,4.10
2022-12-05T04:18:27.941Z,4.06
2022-12-05T04:19:27.937Z,3.96
2022-12-05T04:20:27.907Z,3.95
2022-12-05T04:21:27.900Z,4.04
2022-12-05T04:22:27.906Z,3.94
2022-12-05T04:23:27.875Z,3.99
2022-12-05T04:24:27.889Z,4.05
2022-12-05T04:25:27.857Z,4.12
2022-12-05T04:26:27.843Z,3.96
2022-12-05T04:27:27.830Z,3.99
2022-12-05T04:28:27.849Z,4.01
2022-12-05T04:29:27.810Z,3.94
2022-12-05T04:30:27.808Z,4.06
2022-12-05T04:31:27.883Z,4.06
2022-12-05T04:32:27.773Z,3.96
2022-12-05T04:33:27.780Z,4.10
2022-12-05T04:34:27.749Z,4.06
2022-12-05T04:35:27.750Z,4.10
2022-12-05T04:36:27.729Z,4.10
2022-12-05T04:37:27.721Z,4.04
2022-12-05T04:38:27.741Z,4.10
2022-12-05T04:39:27.715Z,4.02
2022-12-05T04:40:27.681Z,3.94
2022-12-05T04:41:27.677Z,4.12
2022-12-05T04:42:27.668Z,4.06
2022-12-05T04:43:27.657Z,4.14
2022-12-05T04:44:27.653Z,4.19
2022-12-05T04:45:27.645Z,4.16
2022-12-05T04:46:27.674Z,4.12
2022-12-05T04:47:27.616Z,4.12
2022-12-05T04:48:27.622Z,4.10
2022-12-05T04:49:27.588Z,4.14
2022-12-05T04:50:27.595Z,4.12
2022-12-05T04:51:27.586Z,4.14
2022-12-05T04:52:27.552Z,4.13
2022-12-05T04:53:27.543Z,4.13
2022-12-05T04:54:27.552Z,4.13
2022-12-05T04:55:27.569Z,4.06
2022-12-05T04:56:27.521Z,4.05
2022-12-05T04:57:27.502Z,4.13
2022-12-05T04:58:27.494Z,4.17
2022-12-05T04:59:27.476Z,4.13
2022-12-05T05:00:27.477Z,4.17
2022-12-05T05:01:27.552Z,4.16
2022-12-05T05:02:27.519Z,4.16
2022-12-05T05:03:27.435Z,4.10
2022-12-05T05:04:27.427Z,4.17
2022-12-05T05:05:27.411Z,4.17
2022-12-05T05:06:27.407Z,4.17
2022-12-05T05:07:27.406Z,4.17
2022-12-05T05:08:27.380Z,4.16
2022-12-05T05:09:27.365Z,4.14
2022-12-05T05:10:27.375Z,4.17
2022-12-05T05:11:27.352Z,4.19
2022-12-05T05:12:27.350Z,4.16
2022-12-05T05:13:27.335Z,4.10
2022-12-05T05:14:27.310Z,4.12
2022-12-05T05:15:27.313Z,4.12
2022-12-05T05:16:27.358Z,4.12
2022-12-05T05:17:27.280Z,4.14
2022-12-05T05:18:27.265Z,4.16
2022-12-05T05:19:27.260Z,4.17
2022-12-05T05:20:27.402Z,4.16
2022-12-05T05:21:27.246Z,4.14
2022-12-05T05:22:27.218Z,4.17
2022-12-05T05:23:27.283Z,4.22
2022-12-05T05:24:27.205Z,4.14
2022-12-05T05:25:27.200Z,4.14
2022-12-05T05:26:27.201Z,4.26
2022-12-05T05:27:27.182Z,4.16
2022-12-05T05:28:27.155Z,4.16
2022-12-05T05:29:27.160Z,4.14
2022-12-05T05:30:27.142Z,4.24
2022-12-05T05:31:27.253Z,4.20
2022-12-05T05:32:27.119Z,4.14
2022-12-05T05:33:27.121Z,4.14
2022-12-05T05:34:27.092Z,4.06
2022-12-05T05:35:27.076Z,4.13
2022-12-05T05:36:27.062Z,4.08
2022-12-05T05:37:27.077Z,4.14
2022-12-05T05:38:27.044Z,4.17
2022-12-05T05:39:27.043Z,4.10
2022-12-05T05:40:27.034Z,4.08
2022-12-05T05:41:27.020Z,4.13
2022-12-05T05:42:27.028Z,4.08
2022-12-05T05:43:26.996Z,3.98
2022-12-05T05:44:26.984Z,4.06
2022-12-05T05:45:26.970Z,4.10
2022-12-05T05:46:27.028Z,4.10
2022-12-05T05:47:26.949Z,3.94
2022-12-05T05:48:26.942Z,4.01
2022-12-05T05:49:26.951Z,4.01
2022-12-05T05:50:26.919Z,3.98
2022-12-05T05:51:26.902Z,3.98
2022-12-05T05:52:26.904Z,3.99
2022-12-05T05:53:26.885Z,3.98
2022-12-05T05:54:26.865Z,3.92
2022-12-05T05:55:26.871Z,3.94
2022-12-05T05:56:26.849Z,3.87
2022-12-05T05:57:26.835Z,4.02
2022-12-05T05:58:26.857Z,3.95
2022-12-05T05:59:26.817Z,3.96
2022-12-05T06:00:26.819Z,3.98
2022-12-05T06:01:26.796Z,3.98
2022-12-05T06:02:26.844Z,3.94
2022-12-05T06:03:27.017Z,3.91
2022-12-05T06:04:26.795Z,3.95
2022-12-05T06:05:26.764Z,3.98
2022-12-05T06:06:26.741Z,3.95
2022-12-05T06:07:26.733Z,4.01
2022-12-05T06:08:26.778Z,4.02
2022-12-05T06:09:26.705Z,4.01
2022-12-05T06:10:26.721Z,3.98
2022-12-05T06:11:27.071Z,3.95
2022-12-05T06:12:26.674Z,3.95
2022-12-05T06:13:26.658Z,3.95
2022-12-05T06:14:26.670Z,3.96
2022-12-05T06:15:26.634Z,3.98
2022-12-05T06:16:26.690Z,4.02
2022-12-05T06:17:26.627Z,4.02
2022-12-05T06:18:26.603Z,3.98
2022-12-05T06:19:26.597Z,4.04
2022-12-05T06:20:26.585Z,3.96
2022-12-05T06:21:26.580Z,4.01
2022-12-05T06:22:26.570Z,3.96
2022-12-05T06:23:26.548Z,3.99
2022-12-05T06:24:26.538Z,3.98
2022-12-05T06:25:26.533Z,3.98
2022-12-05T06:26:26.512Z,3.87
2022-12-05T06:27:26.538Z,3.95
2022-12-05T06:28:26.496Z,3.96
2022-12-05T06:29:30.009Z,3.91
2022-12-05T06:30:27.493Z,3.92
2022-12-05T06:31:27.439Z,3.98
2022-12-05T06:32:26.462Z,3.98
2022-12-05T06:33:26.440Z,3.95
2022-12-05T06:34:26.435Z,4.04
2022-12-05T06:35:26.419Z,3.95
2022-12-05T06:36:26.412Z,3.99
2022-12-05T06:37:26.810Z,4.01
2022-12-05T06:38:26.387Z,4.02
2022-12-05T06:39:26.374Z,3.98
2022-12-05T06:40:26.365Z,4.02
2022-12-05T06:41:26.371Z,4.02
2022-12-05T06:42:26.337Z,4.01
2022-12-05T06:43:26.336Z,4.02
2022-12-05T06:44:26.320Z,4.04
2022-12-05T06:45:26.366Z,4.01
2022-12-05T06:46:26.418Z,4.01
2022-12-05T06:47:26.290Z,3.91
2022-12-05T06:48:26.286Z,3.99
2022-12-05T06:49:30.741Z,4.01
2022-12-05T06:50:27.268Z,3.99
2022-12-05T06:51:26.269Z,3.96
2022-12-05T06:52:26.232Z,3.98
2022-12-05T06:53:26.228Z,4.01
2022-12-05T06:54:26.220Z,4.01
2022-12-05T06:55:26.200Z,3.94
2022-12-05T06:56:26.184Z,3.98
2022-12-05T06:57:26.185Z,4.02
2022-12-05T06:58:26.185Z,4.02
2022-12-05T06:59:26.156Z,3.99
2022-12-05T07:00:26.140Z,4.13
2022-12-05T07:01:26.206Z,4.04
2022-12-05T07:02:26.209Z,4.08
2022-12-05T07:03:26.127Z,3.94
2022-12-05T07:04:26.101Z,4.14
2022-12-05T07:05:26.091Z,4.01
2022-12-05T07:06:26.100Z,4.04
2022-12-05T07:07:26.065Z,4.04
2022-12-05T07:08:26.054Z,4.06
2022-12-05T07:09:26.046Z,4.14
2022-12-05T07:10:26.024Z,4.12
2022-12-05T07:11:26.043Z,4.06
2022-12-05T07:12:26.042Z,4.16
2022-12-05T07:13:25.996Z,4.13
2022-12-05T07:14:47.107Z,4.17
2022-12-05T07:15:26.977Z,4.06
2022-12-05T07:16:26.073Z,4.13
2022-12-05T07:17:25.952Z,4.12
2022-12-05T07:18:25.979Z,4.05
2022-12-05T07:19:25.941Z,4.12
2022-12-05T07:20:30.260Z,4.10
2022-12-05T07:21:26.916Z,4.08
2022-12-05T07:22:25.914Z,4.13
2022-12-05T07:23:25.900Z,4.13
2022-12-05T07:24:25.880Z,4.13
2022-12-05T07:25:25.863Z,4.16
2022-12-05T07:26:25.857Z,4.10
2022-12-05T07:27:27.964Z,4.13
2022-12-05T07:28:25.843Z,4.14
2022-12-05T07:29:25.823Z,4.12
2022-12-05T07:30:25.812Z,4.06
2022-12-05T07:31:25.857Z,4.13
2022-12-05T07:32:25.805Z,4.10
2022-12-05T07:33:25.780Z,4.13
2022-12-05T07:34:25.787Z,4.08
2022-12-05T07:35:25.758Z,4.10
2022-12-05T07:36:25.749Z,4.13
2022-12-05T07:37:25.782Z,4.02
2022-12-05T07:38:25.722Z,4.10
2022-12-05T07:39:25.710Z,3.99
2022-12-05T07:40:25.705Z,4.13
2022-12-05T07:41:25.685Z,4.04
2022-12-05T07:42:25.680Z,3.99
2022-12-05T07:43:25.694Z,3.94
2022-12-05T07:44:25.657Z,4.04
2022-12-05T07:45:25.644Z,4.08
2022-12-05T07:46:25.691Z,3.98
2022-12-05T07:47:25.730Z,3.99
2022-12-05T07:48:25.613Z,4.05
2022-12-05T07:49:25.606Z,4.10
2022-12-05T07:50:25.627Z,4.13
2022-12-05T07:51:25.574Z,4.16
2022-12-05T07:52:25.590Z,3.94
2022-12-05T07:53:25.558Z,4.04
2022-12-05T07:54:25.569Z,4.10
2022-12-05T07:55:25.538Z,4.14
2022-12-05T07:56:25.533Z,3.96
2022-12-05T07:57:25.512Z,4.10
2022-12-05T07:58:25.529Z,3.99
2022-12-05T07:59:25.485Z,4.06
2022-12-05T08:00:25.489Z,4.08
2022-12-05T08:01:25.560Z,4.10
2022-12-05T08:02:25.541Z,4.13
2022-12-05T08:03:25.462Z,4.10
2022-12-05T08:04:25.449Z,4.16
2022-12-05T08:05:25.436Z,4.19
2022-12-05T08:06:25.438Z,4.14
2022-12-05T08:07:25.403Z,4.13
2022-12-05T08:08:25.393Z,4.22
2022-12-05T08:09:25.429Z,4.16
2022-12-05T08:10:25.373Z,4.16
2022-12-05T08:11:25.361Z,4.23
2022-12-05T08:12:25.352Z,4.23
2022-12-05T08:13:25.340Z,4.16
2022-12-05T08:14:25.326Z,4.17
2022-12-05T08:15:25.332Z,4.17
2022-12-05T08:16:25.363Z,4.14
2022-12-05T08:17:25.292Z,4.12
2022-12-05T08:18:27.511Z,4.14
2022-12-05T08:19:25.267Z,4.20
2022-12-05T08:20:25.260Z,4.22
2022-12-05T08:21:25.285Z,4.22
2022-12-05T08:22:25.368Z,4.32
2022-12-05T08:23:32.616Z,4.28
2022-12-05T08:24:25.208Z,4.31
2022-12-05T08:25:25.203Z,4.32
2022-12-05T08:26:25.194Z,4.35
2022-12-05T08:27:25.198Z,4.26
2022-12-05T08:28:25.169Z,4.35
2022-12-05T08:29:25.164Z,4.26
2022-12-05T08:30:25.271Z,4.34
2022-12-05T08:31:25.157Z,4.32
2022-12-05T08:32:25.123Z,4.34
2022-12-05T08:33:25.109Z,4.32
2022-12-05T08:34:25.107Z,4.30
2022-12-05T08:35:25.094Z,4.35
2022-12-05T08:36:25.088Z,4.28
2022-12-05T08:37:25.089Z,4.30
2022-12-05T08:38:25.084Z,4.28
2022-12-05T08:39:25.041Z,4.35
2022-12-05T08:40:25.100Z,4.30
2022-12-05T08:41:25.034Z,4.32
2022-12-05T08:42:25.012Z,4.41
2022-12-05T08:43:25.014Z,4.44
2022-12-05T08:44:25.006Z,4.44
2022-12-05T08:45:24.976Z,4.34
2022-12-05T08:46:25.099Z,4.32
2022-12-05T08:47:24.956Z,4.40
2022-12-05T08:48:29.208Z,4.32
2022-12-05T08:49:24.937Z,4.32
2022-12-05T08:50:25.018Z,4.38
2022-12-05T08:51:24.923Z,4.31
2022-12-05T08:52:24.931Z,4.40
2022-12-05T08:53:24.890Z,4.38
2022-12-05T08:54:24.934Z,4.42
2022-12-05T08:55:24.870Z,4.32
2022-12-05T08:56:27.055Z,4.40
2022-12-05T08:57:24.863Z,4.40
2022-12-05T08:58:24.845Z,4.41
2022-12-05T08:59:24.821Z,4.35
2022-12-05T09:00:24.941Z,4.31
2022-12-05T09:01:24.836Z,4.34
2022-12-05T09:02:24.915Z,4.40
2022-12-05T09:03:24.797Z,4.40
2022-12-05T09:04:24.768Z,4.38
2022-12-05T09:05:29.398Z,4.35
2022-12-05T09:06:25.746Z,4.41
2022-12-05T09:07:24.729Z,4.37
2022-12-05T09:08:24.725Z,4.42
2022-12-05T09:09:24.750Z,4.34
2022-12-05T09:10:24.813Z,4.44
2022-12-05T09:11:24.688Z,4.40
2022-12-05T09:12:24.691Z,4.42
2022-12-05T09:13:24.663Z,4.41
2022-12-05T09:14:24.659Z,4.52
2022-12-05T09:15:24.766Z,4.50
2022-12-05T09:16:24.727Z,4.34
2022-12-05T09:17:24.621Z,4.45
2022-12-05T09:18:24.627Z,4.38
2022-12-05T09:19:24.601Z,4.38
2022-12-05T09:20:24.623Z,4.48
2022-12-05T09:21:24.575Z,4.41
2022-12-05T09:22:24.574Z,4.37
2022-12-05T09:23:24.556Z,4.49
2022-12-05T09:24:24.552Z,4.41
2022-12-05T09:25:24.538Z,4.45
2022-12-05T09:26:24.542Z,4.38
2022-12-05T09:27:24.514Z,4.40
2022-12-05T09:28:24.511Z,4.44
2022-12-05T09:29:24.506Z,4.53
2022-12-05T09:30:24.480Z,4.48
2022-12-05T09:31:24.523Z,4.50
2022-12-05T09:32:24.454Z,4.50
2022-12-05T09:33:24.448Z,4.50
2022-12-05T09:34:24.446Z,4.48
2022-12-05T09:35:24.456Z,4.44
2022-12-05T09:36:24.419Z,4.52
2022-12-05T09:37:38.730Z,4.56
2022-12-05T09:38:25.392Z,4.52
2022-12-05T09:39:24.375Z,4.58
2022-12-05T09:40:24.390Z,4.59
2022-12-05T09:41:24.363Z,4.59
2022-12-05T09:42:24.369Z,4.59
2022-12-05T09:43:24.335Z,4.58
2022-12-05T09:44:24.329Z,4.63
2022-12-05T09:45:24.311Z,4.53
2022-12-05T09:46:24.368Z,4.56
2022-12-05T09:47:24.289Z,4.55
2022-12-05T09:48:24.283Z,4.62
2022-12-05T09:49:24.270Z,4.73
2022-12-05T09:50:24.268Z,4.73
2022-12-05T09:51:24.253Z,4.68
2022-12-05T09:52:24.241Z,4.66
2022-12-05T09:53:24.222Z,4.70
2022-12-05T09:54:24.223Z,4.73
2022-12-05T09:55:24.204Z,4.66
2022-12-05T09:56:24.216Z,4.66
2022-12-05T09:57:27.764Z,4.59
2022-12-05T09:58:25.192Z,4.63
2022-12-05T09:59:24.162Z,4.63
2022-12-05T10:00:24.151Z,4.62
2022-12-05T10:01:24.197Z,4.71
2022-12-05T10:02:24.131Z,4.70
2022-12-05T10:03:24.123Z,4.63
2022-12-05T10:04:24.164Z,4.73
2022-12-05T10:05:24.155Z,4.59
2022-12-05T10:06:24.106Z,4.60
2022-12-05T10:07:24.073Z,4.53
2022-12-05T10:08:24.138Z,4.60
2022-12-05T10:09:24.046Z,4.59
2022-12-05T10:10:24.052Z,4.55
2022-12-05T10:11:24.056Z,4.68
2022-12-05T10:12:24.021Z,4.58
2022-12-05T10:13:24.138Z,4.59
2022-12-05T10:14:24.018Z,4.66
2022-12-05T10:15:23.994Z,4.58
2022-12-05T10:16:24.018Z,4.58
2022-12-05T10:17:23.972Z,4.56
2022-12-05T10:18:23.954Z,4.59
2022-12-05T10:19:23.938Z,4.53
2022-12-05T10:20:23.949Z,4.53
2022-12-05T10:21:23.918Z,4.62
2022-12-05T10:22:23.909Z,4.59
2022-12-05T10:23:55.536Z,4.62
2022-12-05T10:24:24.882Z,4.59
2022-12-05T10:25:23.872Z,4.55
2022-12-05T10:26:23.870Z,4.58
2022-12-05T10:27:23.857Z,4.59
2022-12-05T10:28:23.865Z,4.55
2022-12-05T10:29:23.839Z,4.67
2022-12-05T10:30:23.859Z,4.55
2022-12-05T10:31:23.880Z,4.55
2022-12-05T10:32:23.799Z,4.49
2022-12-05T10:33:23.783Z,4.48
2022-12-05T10:34:23.830Z,4.53
2022-12-05T10:35:23.794Z,4.58
2022-12-05T10:36:23.763Z,4.53
2022-12-05T10:37:23.743Z,4.59
2022-12-05T10:38:23.734Z,4.66
2022-12-05T10:39:23.732Z,4.60
2022-12-05T10:40:23.708Z,4.70
2022-12-05T10:41:23.697Z,4.73
2022-12-05T10:42:23.703Z,4.62
2022-12-05T10:43:23.678Z,4.62
2022-12-05T10:44:23.692Z,4.66
2022-12-05T10:45:23.653Z,4.62
2022-12-05T10:46:23.743Z,4.63
2022-12-05T10:47:23.632Z,4.68
2022-12-05T10:48:23.636Z,4.71
2022-12-05T10:49:23.604Z,4.60
2022-12-05T10:50:23.619Z,4.52
2022-12-05T10:51:23.653Z,4.48
2022-12-05T10:52:23.599Z,4.53
2022-12-05T10:53:23.564Z,4.52
2022-12-05T10:54:23.614Z,4.50
2022-12-05T10:55:23.539Z,4.53
2022-12-05T10:56:31.194Z,4.52
2022-12-05T10:57:24.563Z,4.44
2022-12-05T10:58:23.525Z,4.49
2022-12-05T10:59:23.506Z,4.53
2022-12-05T11:00:23.490Z,4.44
2022-12-05T11:01:23.538Z,4.41
2022-12-05T11:02:23.573Z,4.49
2022-12-05T11:03:23.477Z,4.50
2022-12-05T11:04:23.460Z,4.52
2022-12-05T11:05:23.510Z,4.45
2022-12-05T11:06:23.434Z,4.38
2022-12-05T11:07:23.410Z,4.40
2022-12-05T11:08:35.639Z,4.41
2022-12-05T11:09:24.393Z,4.41
2022-12-05T11:10:26.673Z,4.45
2022-12-05T11:11:23.404Z,4.41
2022-12-05T11:12:23.357Z,4.37
2022-12-05T11:13:23.348Z,4.44
2022-12-05T11:14:23.348Z,4.38
2022-12-05T11:15:23.330Z,4.35
2022-12-05T11:16:23.380Z,4.31
2022-12-05T11:17:23.301Z,4.34
2022-12-05T11:18:23.317Z,4.38
2022-12-05T11:19:23.277Z,4.42
2022-12-05T11:20:23.274Z,4.35
2022-12-05T11:21:23.268Z,4.37
2022-12-05T11:22:23.250Z,4.30
2022-12-05T11:23:23.241Z,4.24
2022-12-05T11:24:23.287Z,4.30
2022-12-05T11:25:23.208Z,4.24
2022-12-05T11:26:23.201Z,4.22
2022-12-05T11:27:23.190Z,4.32
2022-12-05T11:28:23.203Z,4.31
2022-12-05T11:29:23.180Z,4.31
2022-12-05T11:30:23.169Z,4.40
2022-12-05T11:31:23.171Z,4.34
2022-12-05T11:32:23.166Z,4.35
2022-12-05T11:33:23.126Z,4.42
2022-12-05T11:34:23.146Z,4.42
2022-12-05T11:35:23.111Z,4.40
2022-12-05T11:36:23.096Z,4.32
2022-12-05T11:37:23.085Z,4.40
2022-12-05T11:38:23.078Z,4.44
2022-12-05T11:39:23.068Z,4.41
2022-12-05T11:40:28.399Z,4.35
2022-12-05T11:41:24.054Z,4.37
2022-12-05T11:42:23.041Z,4.37
2022-12-05T11:43:23.019Z,4.31
2022-12-05T11:44:23.012Z,4.38
2022-12-05T11:45:23.003Z,4.40
2022-12-05T11:46:26.688Z,4.38
2022-12-05T11:47:22.973Z,4.41
2022-12-05T11:48:22.963Z,4.41
2022-12-05T11:49:22.962Z,4.31
2022-12-05T11:50:22.958Z,4.34
2022-12-05T11:51:22.937Z,4.23
2022-12-05T11:52:22.934Z,4.38
2022-12-05T11:53:22.927Z,4.31
2022-12-05T11:54:48.816Z,4.32
2022-12-05T11:55:23.886Z,4.42
2022-12-05T11:56:22.879Z,4.35
2022-12-05T11:57:22.867Z,4.35
2022-12-05T11:58:22.846Z,4.37
2022-12-05T11:59:22.851Z,4.41
2022-12-05T12:00:22.823Z,4.45
2022-12-05T12:01:22.823Z,4.45
2022-12-05T12:02:22.858Z,4.38
2022-12-05T12:03:22.903Z,4.45
2022-12-05T12:04:22.780Z,4.48
2022-12-05T12:05:22.779Z,4.52
2022-12-05T12:06:22.784Z,4.56
2022-12-05T12:07:22.752Z,4.53
2022-12-05T12:08:22.839Z,4.60
2022-12-05T12:09:22.728Z,4.60
2022-12-05T12:10:22.755Z,4.70
2022-12-05T12:11:22.712Z,4.67
2022-12-05T12:12:22.696Z,4.70
2022-12-05T12:13:22.683Z,4.66
2022-12-05T12:14:22.683Z,4.67
2022-12-05T12:15:22.674Z,4.60
2022-12-05T12:16:22.696Z,4.60
2022-12-05T12:17:22.648Z,4.68
2022-12-05T12:18:22.625Z,4.74
2022-12-05T12:19:22.621Z,4.70
2022-12-05T12:20:22.627Z,4.66
2022-12-05T12:21:22.603Z,4.71
2022-12-05T12:22:22.608Z,4.66
2022-12-05T12:23:22.573Z,4.66
2022-12-05T12:24:22.556Z,4.56
2022-12-05T12:25:22.559Z,4.68
2022-12-05T12:26:22.558Z,4.74
2022-12-05T12:27:22.533Z,4.66
2022-12-05T12:28:22.524Z,4.62
2022-12-05T12:29:22.508Z,4.70
2022-12-05T12:30:22.500Z,4.71
2022-12-05T12:31:22.560Z,4.66
2022-12-05T12:32:22.476Z,4.66
2022-12-05T12:33:26.952Z,4.67
2022-12-05T12:34:23.446Z,4.67
2022-12-05T12:35:22.453Z,4.66
2022-12-05T12:36:22.430Z,4.59
2022-12-05T12:37:22.435Z,4.60
2022-12-05T12:38:22.424Z,4.63
2022-12-05T12:39:22.401Z,4.63
2022-12-05T12:40:22.392Z,4.71
2022-12-05T12:41:22.392Z,4.63
2022-12-05T12:42:22.411Z,4.60
2022-12-05T12:43:52.216Z,4.67
2022-12-05T12:44:23.345Z,4.55
2022-12-05T12:45:22.495Z,4.66
2022-12-05T12:46:22.378Z,4.60
2022-12-05T12:47:22.337Z,4.48
2022-12-05T12:48:22.311Z,4.53
2022-12-05T12:49:22.304Z,4.53
2022-12-05T12:50:22.272Z,4.49
2022-12-05T12:51:22.278Z,4.52
2022-12-05T12:52:22.249Z,4.38
2022-12-05T12:53:22.247Z,4.42
2022-12-05T12:54:40.362Z,4.49
2022-12-05T12:55:23.222Z,4.41
2022-12-05T12:56:22.225Z,4.40
2022-12-05T12:57:24.002Z,4.44
2022-12-05T12:58:22.181Z,4.45
2022-12-05T12:59:22.178Z,4.45
2022-12-05T13:00:22.196Z,4.48
2022-12-05T13:01:22.256Z,4.35
2022-12-05T13:02:22.214Z,4.49
2022-12-05T13:03:22.134Z,4.50
2022-12-05T13:04:22.182Z,4.48
2022-12-05T13:05:22.120Z,4.62
2022-12-05T13:06:22.117Z,4.53
2022-12-05T13:07:22.090Z,4.53
2022-12-05T13:08:22.192Z,4.48
2022-12-05T13:09:22.065Z,4.44
2022-12-05T13:10:22.071Z,4.45
2022-12-05T13:11:22.056Z,4.42
2022-12-05T13:12:22.049Z,4.41
2022-12-05T13:13:22.026Z,4.37
2022-12-05T13:14:22.008Z,4.42
2022-12-05T13:15:21.998Z,4.40
2022-12-05T13:16:22.050Z,4.45
2022-12-05T13:17:21.987Z,4.49
2022-12-05T13:18:21.992Z,4.49